Waterford, California
Current Conditions -  °F | °C
As of 6:53 PM on Tuesday 21 Oct 2014 (Local Time) from KMOD Reporting Station
Clear Clear  
Wind Chill: 65°   Ceiling: Unl
Heat Index: 65°   Visibility: 10mi
Dew Point: 39°   Wind: 9mph
Humidity: 39%   Direction: 310°NW
Pressure: 29.98"   Gusts: NA
Location:  37.64°N, 120.76°W
Report Text: KMOD 220153Z 31008KT 10SM CLR 18/04 A2998 RMK AO2 SLP153 T01830039
Loading
Personal Weather Stations






























Interactive Weather Map
Tropical Storm Tracking
New forecast layout! Learn more

10-Day Weather Forecast

Advertisements
Track Severe Weather on mobile